createdAt,value
2023-03-21T00:01:52.268Z,26.75
2023-03-21T00:04:19.386Z,25.67
2023-03-21T00:06:46.586Z,31.42
2023-03-21T00:09:13.693Z,29.33
2023-03-21T00:11:41.012Z,29.13
2023-03-21T00:14:09.146Z,28.45
2023-03-21T00:16:39.886Z,29.85
2023-03-21T00:19:09.662Z,31.92
2023-03-21T00:21:55.610Z,27.17
2023-03-21T00:24:25.434Z,25.13
2023-03-21T00:26:52.595Z,29.38
2023-03-21T00:29:19.897Z,28.20
2023-03-21T00:31:46.991Z,29.20
2023-03-21T00:34:14.202Z,28.08
2023-03-21T00:36:41.438Z,25.77
2023-03-21T00:39:08.564Z,26.25
2023-03-21T00:41:42.411Z,27.95
2023-03-21T00:44:11.669Z,27.67
2023-03-21T00:46:57.258Z,25.92
2023-03-21T00:49:25.850Z,26.95
2023-03-21T00:51:55.148Z,28.42
2023-03-21T00:54:24.298Z,26.33
2023-03-21T00:56:51.368Z,23.90
2023-03-21T00:59:18.456Z,26.60
2023-03-21T01:01:46.448Z,30.73
2023-03-21T01:04:14.487Z,28.20
2023-03-21T01:06:42.258Z,27.40
2023-03-21T01:09:16.548Z,24.23
2023-03-21T01:11:43.856Z,27.57
2023-03-21T01:14:21.849Z,27.05
2023-03-21T01:16:50.356Z,26.10
2023-03-21T01:19:26.288Z,28.00
2023-03-21T01:21:55.081Z,21.65
2023-03-21T01:24:22.295Z,23.20
2023-03-21T01:26:49.378Z,26.02
2023-03-21T01:29:16.449Z,25.33
2023-03-21T01:31:43.597Z,23.13
2023-03-21T01:34:10.702Z,25.45
2023-03-21T01:36:37.849Z,24.65
2023-03-21T01:39:06.099Z,23.90
2023-03-21T01:41:42.361Z,22.48
2023-03-21T01:44:13.279Z,22.00
2023-03-21T01:46:57.061Z,25.73
2023-03-21T01:49:38.607Z,23.40
2023-03-21T01:52:12.801Z,24.13
2023-03-21T01:54:42.456Z,19.67
2023-03-21T01:57:11.459Z,24.38
2023-03-21T01:59:39.410Z,18.35
2023-03-21T02:02:07.207Z,18.23
2023-03-21T02:04:35.231Z,21.60
2023-03-21T02:07:07.288Z,19.23
2023-03-21T02:09:35.622Z,20.23
2023-03-21T02:12:02.735Z,18.95
2023-03-21T02:14:29.809Z,21.83
2023-03-21T02:17:02.891Z,20.42
2023-03-21T02:19:53.428Z,19.53
2023-03-21T02:22:39.930Z,21.75
2023-03-21T02:25:26.023Z,19.75
2023-03-21T02:28:07.872Z,17.73
2023-03-21T02:30:45.833Z,18.50
2023-03-21T02:33:24.312Z,19.13
2023-03-21T02:35:58.605Z,18.95
2023-03-21T02:38:33.963Z,18.95
2023-03-21T02:41:13.218Z,18.73
2023-03-21T02:43:46.352Z,18.25
2023-03-21T02:46:17.636Z,15.90
2023-03-21T02:49:03.536Z,14.90
2023-03-21T02:51:31.102Z,17.45
2023-03-21T02:54:26.048Z,16.52
2023-03-21T02:56:47.141Z,18.30
2023-03-21T02:59:14.183Z,16.42
2023-03-21T03:01:41.278Z,15.40
2023-03-21T03:04:34.577Z,16.00
2023-03-21T03:07:07.820Z,12.87
2023-03-21T03:09:34.877Z,15.20
2023-03-21T03:12:11.425Z,15.07
2023-03-21T03:14:56.415Z,14.80
2023-03-21T03:17:41.295Z,17.15
2023-03-21T03:20:17.051Z,13.90
2023-03-21T03:23:20.079Z,12.80
2023-03-21T03:25:54.478Z,12.95
2023-03-21T03:28:23.471Z,15.00
2023-03-21T03:31:05.529Z,17.00
2023-03-21T03:33:34.665Z,16.73
2023-03-21T03:36:06.405Z,17.17
2023-03-21T03:38:33.976Z,19.75
2023-03-21T03:41:03.637Z,16.13
2023-03-21T03:43:33.459Z,15.52
2023-03-21T03:46:10.431Z,14.57
2023-03-21T03:48:46.258Z,16.00
2023-03-21T03:51:16.145Z,17.48
2023-03-21T03:53:47.178Z,20.08
2023-03-21T03:56:14.228Z,18.27
2023-03-21T03:58:45.920Z,18.77
2023-03-21T04:01:13.908Z,18.17
2023-03-21T04:03:49.505Z,20.10
2023-03-21T04:06:18.244Z,17.85
2023-03-21T04:08:45.324Z,19.90
2023-03-21T04:11:14.217Z,18.45
2023-03-21T04:13:41.296Z,18.27
2023-03-21T04:16:08.884Z,18.77
2023-03-21T04:18:35.985Z,19.42
2023-03-21T04:21:03.546Z,24.30
2023-03-21T04:23:30.811Z,19.50
2023-03-21T04:25:57.860Z,20.33
2023-03-21T04:28:24.920Z,22.80
2023-03-21T04:31:02.352Z,20.30
2023-03-21T04:33:32.051Z,21.38
2023-03-21T04:35:59.278Z,21.85
2023-03-21T04:38:30.496Z,23.58
2023-03-21T04:40:57.974Z,23.98
2023-03-21T04:43:25.045Z,19.63
2023-03-21T04:45:52.421Z,21.88
2023-03-21T04:48:19.916Z,23.13
2023-03-21T04:50:47.211Z,21.67
2023-03-21T04:53:14.278Z,25.05
2023-03-21T04:55:41.343Z,26.23
2023-03-21T04:58:08.516Z,22.60
2023-03-21T05:00:38.422Z,24.75
2023-03-21T05:03:08.958Z,24.65
2023-03-21T05:05:37.487Z,23.38
2023-03-21T05:08:06.780Z,21.92
2023-03-21T05:10:34.069Z,21.85
2023-03-21T05:13:01.229Z,23.05
2023-03-21T05:15:28.331Z,19.65
2023-03-21T05:17:55.385Z,23.83
2023-03-21T05:20:22.469Z,22.60
2023-03-21T05:22:50.584Z,19.95
2023-03-21T05:25:18.125Z,21.77
2023-03-21T05:27:45.381Z,21.08
2023-03-21T05:30:16.504Z,28.98
2023-03-21T05:32:43.578Z,22.50
2023-03-21T05:35:10.670Z,22.75
2023-03-21T05:37:38.382Z,22.45
2023-03-21T05:40:09.201Z,24.10
2023-03-21T05:42:36.278Z,22.58
2023-03-21T05:45:03.394Z,28.20
2023-03-21T05:47:30.529Z,26.75
2023-03-21T05:49:57.619Z,26.70
2023-03-21T05:52:24.669Z,27.30
2023-03-21T05:54:51.811Z,28.15
2023-03-21T05:57:19.147Z,24.80
2023-03-21T05:59:46.218Z,23.50
2023-03-21T06:02:13.325Z,28.90
2023-03-21T06:04:40.487Z,26.45
2023-03-21T06:07:07.545Z,26.10
2023-03-21T06:09:34.667Z,25.52
2023-03-21T06:12:01.727Z,26.70
2023-03-21T06:14:28.805Z,27.08
2023-03-21T06:16:56.092Z,25.63
2023-03-21T06:19:24.917Z,29.45
2023-03-21T06:21:51.967Z,33.00
2023-03-21T06:24:19.035Z,26.55
2023-03-21T06:26:46.344Z,27.15
2023-03-21T06:29:13.474Z,29.75
2023-03-21T06:31:40.675Z,30.98
2023-03-21T06:34:07.856Z,28.88
2023-03-21T06:36:35.142Z,29.40
2023-03-21T06:39:02.249Z,35.30
2023-03-21T06:41:29.326Z,31.07
2023-03-21T06:43:56.390Z,32.63
2023-03-21T06:46:23.455Z,32.22
2023-03-21T06:48:50.571Z,36.75
2023-03-21T06:51:17.851Z,38.72
2023-03-21T06:53:44.960Z,34.60
2023-03-21T06:56:12.641Z,36.25
2023-03-21T06:58:39.899Z,41.13
2023-03-21T07:01:08.139Z,41.05
2023-03-21T07:03:35.271Z,38.75
2023-03-21T07:06:07.081Z,43.65
2023-03-21T07:08:34.171Z,38.92
2023-03-21T07:11:01.295Z,40.92
2023-03-21T07:13:28.358Z,41.20
2023-03-21T07:15:55.537Z,36.33
2023-03-21T07:18:22.692Z,41.88
2023-03-21T07:20:50.934Z,41.63
2023-03-21T07:23:18.890Z,40.72
2023-03-21T07:25:46.419Z,44.13
2023-03-21T07:28:13.550Z,41.08
2023-03-21T07:30:40.897Z,40.42
2023-03-21T07:33:08.075Z,44.40
2023-03-21T07:35:37.284Z,43.60
2023-03-21T07:38:05.263Z,43.47
2023-03-21T07:40:32.621Z,37.65
2023-03-21T07:42:59.683Z,43.60
2023-03-21T07:45:27.338Z,45.25
2023-03-21T07:47:54.528Z,37.45
2023-03-21T07:50:21.682Z,44.33
2023-03-21T07:52:48.867Z,47.67
2023-03-21T07:55:17.262Z,46.33
2023-03-21T07:57:44.384Z,48.27
2023-03-21T08:00:12.579Z,48.88
2023-03-21T08:02:39.737Z,52.30
2023-03-21T08:05:06.972Z,52.95
2023-03-21T08:07:34.028Z,55.35
2023-03-21T08:10:01.261Z,59.70
2023-03-21T08:12:28.333Z,53.92
2023-03-21T08:14:55.475Z,53.83
2023-03-21T08:17:22.535Z,57.13
2023-03-21T08:19:49.668Z,50.97
2023-03-21T08:22:17.149Z,48.03
2023-03-21T08:24:44.254Z,46.57
2023-03-21T08:27:11.314Z,51.28
2023-03-21T08:29:40.558Z,51.33
2023-03-21T08:32:07.674Z,48.25
2023-03-21T08:34:34.780Z,49.30
2023-03-21T08:37:02.538Z,44.85
2023-03-21T08:39:29.633Z,46.10
2023-03-21T08:41:56.718Z,46.50
2023-03-21T08:44:25.218Z,42.67
2023-03-21T08:46:52.270Z,39.22
2023-03-21T08:49:19.374Z,38.63
2023-03-21T08:51:46.462Z,41.20
2023-03-21T08:54:20.535Z,38.63
2023-03-21T08:56:47.634Z,34.88
2023-03-21T08:59:14.717Z,36.22
2023-03-21T09:01:42.057Z,36.77
2023-03-21T09:04:10.888Z,36.20
2023-03-21T09:06:38.433Z,32.85
2023-03-21T09:09:07.510Z,35.30
2023-03-21T09:11:34.842Z,35.63
2023-03-21T09:14:01.980Z,32.17
2023-03-21T09:16:29.065Z,32.17
2023-03-21T09:18:57.017Z,29.05
2023-03-21T09:21:24.877Z,34.35
2023-03-21T09:23:52.909Z,33.75
2023-03-21T09:26:20.596Z,28.90
2023-03-21T09:28:48.045Z,30.80
2023-03-21T09:31:19.107Z,26.65
2023-03-21T09:33:46.192Z,26.83
2023-03-21T09:36:14.628Z,27.42
2023-03-21T09:38:44.925Z,28.15
2023-03-21T09:41:16.182Z,26.33
2023-03-21T09:43:51.342Z,23.50
2023-03-21T09:46:20.658Z,26.15
2023-03-21T09:48:57.133Z,24.30
2023-03-21T09:51:26.065Z,20.73
2023-03-21T09:53:55.936Z,21.88
2023-03-21T09:56:25.389Z,23.23
2023-03-21T09:58:54.608Z,21.65
2023-03-21T10:01:27.187Z,21.42
2023-03-21T10:03:55.452Z,24.92
2023-03-21T10:06:28.591Z,21.17
2023-03-21T10:08:57.187Z,23.08
2023-03-21T10:11:32.267Z,22.85
2023-03-21T10:14:00.720Z,21.38
2023-03-21T10:16:29.247Z,20.88
2023-03-21T10:18:56.696Z,21.13
2023-03-21T10:21:51.431Z,21.75
2023-03-21T10:24:15.675Z,17.77
2023-03-21T10:26:42.783Z,19.25
2023-03-21T10:29:10.649Z,19.98
2023-03-21T10:31:37.983Z,22.10
2023-03-21T10:34:07.396Z,19.33
2023-03-21T10:36:34.741Z,18.60
2023-03-21T10:39:09.013Z,19.20
2023-03-21T10:41:36.796Z,19.40
2023-03-21T10:44:17.157Z,17.77
2023-03-21T10:46:50.877Z,17.20
2023-03-21T10:49:18.922Z,17.08
2023-03-21T10:51:47.897Z,18.67
2023-03-21T10:54:15.557Z,18.85
2023-03-21T10:56:55.148Z,18.35
2023-03-21T10:59:22.793Z,19.63
2023-03-21T11:01:51.541Z,18.80
2023-03-21T11:04:28.155Z,20.35
2023-03-21T11:06:56.835Z,19.20
2023-03-21T11:09:25.054Z,19.05
2023-03-21T11:11:55.865Z,18.48
2023-03-21T11:14:26.984Z,18.25
2023-03-21T11:16:54.058Z,20.52
2023-03-21T11:19:32.175Z,22.40
2023-03-21T11:21:59.729Z,17.83
2023-03-21T11:24:29.071Z,17.88
2023-03-21T11:26:56.146Z,18.00
2023-03-21T11:29:34.567Z,18.40
2023-03-21T11:32:02.399Z,23.63
2023-03-21T11:34:31.848Z,22.30
2023-03-21T11:36:59.436Z,21.30
2023-03-21T11:39:32.241Z,19.75
2023-03-21T11:41:59.332Z,23.20
2023-03-21T11:44:27.641Z,23.55
2023-03-21T11:46:54.754Z,24.27
2023-03-21T11:49:22.106Z,26.30
2023-03-21T11:51:49.236Z,22.00
2023-03-21T11:54:22.985Z,23.52
2023-03-21T11:56:51.769Z,21.40
2023-03-21T11:59:25.225Z,26.85
2023-03-21T12:01:57.154Z,26.40
2023-03-21T12:04:36.602Z,23.08
2023-03-21T12:07:06.682Z,25.00
2023-03-21T12:09:47.483Z,25.15
2023-03-21T12:12:38.954Z,24.40
2023-03-21T12:15:10.437Z,24.48
2023-03-21T12:17:56.504Z,28.17
2023-03-21T12:20:28.009Z,25.40
2023-03-21T12:23:16.736Z,25.60
2023-03-21T12:25:48.679Z,26.70
2023-03-21T12:28:32.624Z,38.87
2023-03-21T12:31:04.474Z,23.58
2023-03-21T12:33:55.464Z,24.13
2023-03-21T12:36:27.100Z,23.60
2023-03-21T12:39:01.106Z,21.17
2023-03-21T12:41:29.626Z,24.48
2023-03-21T12:44:04.108Z,23.65
2023-03-21T12:46:42.079Z,27.80
2023-03-21T12:49:09.203Z,26.48
2023-03-21T12:51:40.836Z,25.35
2023-03-21T12:54:16.389Z,24.70
2023-03-21T12:56:43.435Z,27.00
2023-03-21T12:59:16.809Z,26.67
2023-03-21T13:01:43.881Z,31.55
2023-03-21T13:04:19.881Z,57.10
2023-03-21T13:06:47.098Z,26.13
2023-03-21T13:09:16.053Z,27.80
2023-03-21T13:11:43.970Z,27.27
2023-03-21T13:14:27.703Z,30.05
2023-03-21T13:17:00.524Z,25.27
2023-03-21T13:19:47.118Z,35.70
2023-03-21T13:22:22.982Z,24.27
2023-03-21T13:24:50.706Z,25.08
2023-03-21T13:27:34.009Z,25.33
2023-03-21T13:30:09.530Z,24.60
2023-03-21T13:32:39.719Z,26.45
2023-03-21T13:35:09.923Z,28.67
2023-03-21T13:37:39.458Z,24.70
2023-03-21T13:40:12.771Z,25.23
2023-03-21T13:42:43.715Z,26.30
2023-03-21T13:45:11.610Z,38.55
2023-03-21T13:47:40.478Z,35.58
2023-03-21T13:50:19.822Z,25.23
2023-03-21T13:53:05.080Z,22.15
2023-03-21T13:55:34.222Z,21.15
2023-03-21T13:58:01.400Z,54.37
2023-03-21T14:00:30.141Z,22.35
2023-03-21T14:03:00.985Z,28.70
2023-03-21T14:05:28.287Z,21.83
2023-03-21T14:08:05.951Z,19.83
2023-03-21T14:10:38.644Z,21.75
2023-03-21T14:13:06.053Z,20.30
2023-03-21T14:15:49.713Z,24.25
2023-03-21T14:18:35.025Z,25.90
2023-03-21T14:21:23.383Z,19.50
2023-03-21T14:24:07.218Z,21.70
2023-03-21T14:26:35.295Z,45.20
2023-03-21T14:29:05.246Z,25.00
2023-03-21T14:31:32.728Z,21.85
2023-03-21T14:34:00.312Z,20.58
2023-03-21T14:36:28.386Z,20.75
2023-03-21T14:38:58.426Z,21.30
2023-03-21T14:41:29.104Z,20.33
2023-03-21T14:44:15.008Z,22.05
2023-03-21T14:46:42.228Z,22.98
2023-03-21T14:49:13.198Z,23.58
2023-03-21T14:51:41.783Z,22.50
2023-03-21T14:54:10.121Z,22.92
2023-03-21T14:56:37.196Z,21.77
2023-03-21T14:59:04.246Z,25.13
2023-03-21T15:01:33.108Z,24.42
2023-03-21T15:04:00.738Z,24.45
2023-03-21T15:06:27.895Z,22.17
2023-03-21T15:08:58.729Z,28.38
2023-03-21T15:11:39.127Z,22.13
2023-03-21T15:14:07.075Z,24.07
2023-03-21T15:16:34.227Z,28.08
2023-03-21T15:19:02.020Z,24.02
2023-03-21T15:21:34.847Z,22.48
2023-03-21T15:24:28.430Z,21.67
2023-03-21T15:26:58.886Z,22.98
2023-03-21T15:29:27.339Z,23.95
2023-03-21T15:31:54.433Z,26.13
2023-03-21T15:34:26.108Z,19.58
2023-03-21T15:36:55.688Z,21.70
2023-03-21T15:39:23.779Z,22.95
2023-03-21T15:42:17.518Z,22.00
2023-03-21T15:44:49.395Z,22.80
2023-03-21T15:47:16.447Z,21.08
2023-03-21T15:49:43.574Z,22.27
2023-03-21T15:52:14.446Z,21.70
2023-03-21T15:54:50.155Z,41.30
2023-03-21T15:57:24.102Z,22.98
2023-03-21T15:59:51.752Z,20.50
2023-03-21T16:02:20.178Z,19.50
2023-03-21T16:05:25.820Z,26.40
2023-03-21T16:07:52.910Z,26.23
2023-03-21T16:10:28.005Z,21.90
2023-03-21T16:12:55.247Z,23.58
2023-03-21T16:15:22.701Z,22.38
2023-03-21T16:17:54.549Z,20.47
2023-03-21T16:20:22.855Z,22.88
2023-03-21T16:22:50.379Z,25.13
2023-03-21T16:25:17.987Z,25.48
2023-03-21T16:27:45.538Z,22.35
2023-03-21T16:30:13.873Z,23.33
2023-03-21T16:32:40.970Z,22.45
2023-03-21T16:35:08.499Z,23.85
2023-03-21T16:37:35.595Z,27.42
2023-03-21T16:40:05.753Z,26.00
2023-03-21T16:42:32.885Z,31.25
2023-03-21T16:44:59.946Z,35.78
2023-03-21T16:47:27.055Z,39.75
2023-03-21T16:49:55.589Z,29.27
2023-03-21T16:52:25.160Z,32.17
2023-03-21T16:54:53.317Z,29.17
2023-03-21T16:57:23.156Z,31.00
2023-03-21T16:59:50.614Z,40.63
2023-03-21T17:02:17.669Z,29.50
2023-03-21T17:04:44.920Z,33.40
2023-03-21T17:07:14.386Z,31.45
2023-03-21T17:09:42.475Z,34.45
2023-03-21T17:12:13.513Z,34.15
2023-03-21T17:14:41.222Z,31.65
2023-03-21T17:17:14.407Z,32.88
2023-03-21T17:19:41.490Z,34.30
2023-03-21T17:22:08.653Z,37.45
2023-03-21T17:24:35.867Z,31.67
2023-03-21T17:27:03.389Z,29.80
2023-03-21T17:29:30.943Z,32.15
2023-03-21T17:31:58.041Z,30.52
2023-03-21T17:34:25.926Z,34.50
2023-03-21T17:36:52.980Z,30.48
2023-03-21T17:39:22.513Z,30.17
2023-03-21T17:41:49.849Z,35.88
2023-03-21T17:44:16.927Z,30.33
2023-03-21T17:46:44.055Z,33.45
2023-03-21T17:49:12.401Z,34.45
2023-03-21T17:51:39.699Z,35.22
2023-03-21T17:54:06.889Z,39.97
2023-03-21T17:56:34.371Z,38.72
2023-03-21T17:59:05.309Z,34.97
2023-03-21T18:01:32.476Z,37.08
2023-03-21T18:04:02.805Z,33.55
2023-03-21T18:06:29.985Z,40.58
2023-03-21T18:08:57.555Z,43.28
2023-03-21T18:11:26.380Z,36.42
2023-03-21T18:14:03.608Z,39.35
2023-03-21T18:16:37.282Z,37.40
2023-03-21T18:19:04.764Z,34.72
2023-03-21T18:21:33.021Z,35.80
2023-03-21T18:24:00.188Z,41.28
2023-03-21T18:26:27.415Z,33.05
2023-03-21T18:29:47.310Z,35.97
2023-03-21T18:31:43.846Z,39.78
2023-03-21T18:34:14.515Z,33.75
2023-03-21T18:36:42.754Z,43.35
2023-03-21T18:39:09.979Z,46.47
2023-03-21T18:41:37.039Z,42.10
2023-03-21T18:44:12.984Z,45.00
2023-03-21T18:46:47.264Z,51.03
2023-03-21T18:49:58.936Z,43.20
2023-03-21T18:52:02.571Z,39.75
2023-03-21T18:54:30.129Z,34.42
2023-03-21T18:57:33.784Z,38.30
2023-03-21T18:59:44.530Z,40.38
2023-03-21T19:02:12.196Z,33.08
2023-03-21T19:04:39.337Z,35.42
2023-03-21T19:07:07.451Z,31.85
2023-03-21T19:09:58.253Z,36.28
2023-03-21T19:12:22.118Z,41.60
2023-03-21T19:14:49.263Z,33.63
2023-03-21T19:18:07.188Z,35.80
2023-03-21T19:20:04.235Z,32.85
2023-03-21T19:22:31.725Z,36.95
2023-03-21T19:24:58.939Z,36.40
2023-03-21T19:27:26.058Z,38.90
2023-03-21T19:30:10.836Z,40.72
2023-03-21T19:32:40.705Z,34.37
2023-03-21T19:35:07.937Z,34.13
2023-03-21T19:37:36.234Z,34.88
2023-03-21T19:40:03.601Z,37.05
2023-03-21T19:42:31.005Z,36.17
2023-03-21T19:44:58.200Z,38.17
2023-03-21T19:47:25.424Z,33.05
2023-03-21T19:52:41.051Z,36.38
2023-03-21T19:55:08.324Z,31.30
2023-03-21T19:57:36.200Z,33.83
2023-03-21T20:00:03.269Z,32.33
2023-03-21T20:02:35.917Z,34.28
2023-03-21T20:05:04.003Z,31.90
2023-03-21T20:07:32.619Z,37.40
2023-03-21T20:09:59.775Z,34.03
2023-03-21T20:12:27.456Z,32.65
2023-03-21T20:15:07.118Z,37.95
2023-03-21T20:17:39.821Z,30.92
2023-03-21T20:20:10.710Z,35.40
2023-03-21T20:23:05.077Z,32.08
2023-03-21T20:25:25.026Z,33.95
2023-03-21T20:28:10.497Z,34.78
2023-03-21T20:30:39.850Z,36.10
2023-03-21T20:33:07.107Z,42.53
2023-03-21T20:36:22.965Z,42.40
2023-03-21T20:38:21.650Z,37.40
2023-03-21T20:40:48.999Z,44.28
2023-03-21T20:44:02.165Z,36.38
2023-03-21T20:46:04.417Z,46.30
2023-03-21T20:48:31.765Z,39.70
2023-03-21T20:51:01.862Z,46.13
2023-03-21T20:53:31.506Z,37.13
2023-03-21T20:56:02.170Z,38.10
2023-03-21T20:58:55.313Z,37.10
2023-03-21T21:01:17.451Z,36.78
2023-03-21T21:03:44.666Z,37.03
2023-03-21T21:06:29.844Z,34.92
2023-03-21T21:08:58.057Z,35.95
2023-03-21T21:12:05.058Z,38.88
2023-03-21T21:14:20.454Z,45.13
2023-03-21T21:16:51.610Z,48.53
2023-03-21T21:19:21.553Z,42.83
2023-03-21T21:21:49.773Z,41.95
2023-03-21T21:24:16.865Z,42.03
2023-03-21T21:26:46.248Z,46.58
2023-03-21T21:29:16.943Z,38.88
2023-03-21T21:31:48.776Z,39.78
2023-03-21T21:34:16.133Z,51.70
2023-03-21T21:36:44.905Z,48.10
2023-03-21T21:39:13.161Z,42.47
2023-03-21T21:41:40.706Z,47.03
2023-03-21T21:44:07.795Z,45.80
2023-03-21T21:46:34.992Z,54.00
2023-03-21T21:49:02.395Z,55.80
2023-03-21T21:51:29.755Z,50.53
2023-03-21T21:53:57.220Z,53.77
2023-03-21T21:56:25.850Z,53.80
2023-03-21T21:58:55.983Z,53.85
2023-03-21T22:01:23.110Z,51.75
2023-03-21T22:03:51.611Z,52.60
2023-03-21T22:06:18.722Z,56.97
2023-03-21T22:08:47.217Z,51.38
2023-03-21T22:11:14.938Z,55.15
2023-03-21T22:13:43.529Z,57.80
2023-03-21T22:16:10.795Z,57.45
2023-03-21T22:18:38.533Z,57.38
2023-03-21T22:21:06.247Z,56.97
2023-03-21T22:23:33.369Z,62.35
2023-03-21T22:26:00.520Z,58.90
2023-03-21T22:28:27.684Z,55.30
2023-03-21T22:30:57.755Z,61.65
2023-03-21T22:33:24.868Z,70.25
2023-03-21T22:35:52.219Z,74.00
2023-03-21T22:38:27.924Z,65.40
2023-03-21T22:40:58.332Z,58.45
2023-03-21T22:43:25.500Z,71.95
2023-03-21T22:45:52.761Z,66.55
2023-03-21T22:48:20.201Z,71.53
2023-03-21T22:50:47.376Z,72.07
2023-03-21T22:53:14.468Z,78.17
2023-03-21T22:55:41.588Z,78.40
2023-03-21T22:58:08.670Z,96.63
2023-03-21T23:00:35.862Z,81.32
2023-03-21T23:03:02.980Z,80.03
2023-03-21T23:05:30.137Z,81.78
2023-03-21T23:07:57.219Z,88.68
2023-03-21T23:10:25.517Z,106.40
2023-03-21T23:12:52.679Z,97.88
2023-03-21T23:15:19.792Z,111.10
2023-03-21T23:17:47.904Z,99.13
2023-03-21T23:20:15.075Z,111.05
2023-03-21T23:22:42.231Z,93.25
2023-03-21T23:25:09.458Z,109.75
2023-03-21T23:27:36.870Z,90.38
2023-03-21T23:30:06.266Z,92.22
2023-03-21T23:32:33.453Z,89.57
2023-03-21T23:35:00.636Z,73.37
2023-03-21T23:37:29.936Z,78.65
2023-03-21T23:39:57.137Z,76.13
2023-03-21T23:42:25.262Z,68.90
2023-03-21T23:44:52.372Z,87.13
2023-03-21T23:47:19.463Z,78.40
2023-03-21T23:49:49.107Z,77.05
2023-03-21T23:52:16.612Z,74.10
2023-03-21T23:54:43.817Z,78.70
2023-03-21T23:57:11.195Z,85.10
2023-03-21T23:59:38.313Z,66.93
